createdAt,value
2023-02-27T00:01:47.555Z,2.25
2023-02-27T00:04:50.610Z,2.32
2023-02-27T00:07:53.402Z,2.35
2023-02-27T00:10:56.366Z,2.11
2023-02-27T00:13:58.976Z,2.08
2023-02-27T00:17:03.065Z,2.08
2023-02-27T00:20:08.229Z,2.37
2023-02-27T00:23:11.126Z,2.09
2023-02-27T00:26:13.975Z,2.32
2023-02-27T00:29:16.939Z,2.15
2023-02-27T00:32:19.812Z,1.96
2023-02-27T00:35:23.085Z,1.97
2023-02-27T00:38:27.446Z,1.99
2023-02-27T00:41:33.169Z,1.91
2023-02-27T00:44:36.029Z,1.97
2023-02-27T00:47:38.942Z,2.00
2023-02-27T00:50:41.711Z,2.16
2023-02-27T00:53:44.660Z,2.12
2023-02-27T00:56:47.958Z,2.06
2023-02-27T00:59:51.619Z,2.00
2023-02-27T01:02:54.374Z,2.01
2023-02-27T01:05:58.246Z,1.93
2023-02-27T01:09:01.084Z,1.98
2023-02-27T01:12:04.399Z,1.93
2023-02-27T01:15:08.382Z,2.11
2023-02-27T01:18:11.293Z,2.03
2023-02-27T01:21:13.971Z,2.13
2023-02-27T01:24:17.104Z,2.16
2023-02-27T01:27:19.778Z,1.89
2023-02-27T01:30:23.168Z,2.27
2023-02-27T01:33:25.834Z,2.10
2023-02-27T01:36:28.791Z,2.12
2023-02-27T01:39:33.100Z,2.04
2023-02-27T01:42:36.202Z,2.23
2023-02-27T01:45:43.785Z,2.00
2023-02-27T01:48:47.653Z,2.26
2023-02-27T01:52:10.433Z,1.97
2023-02-27T01:55:14.948Z,2.07
2023-02-27T01:58:18.069Z,2.27
2023-02-27T02:01:22.430Z,1.94
2023-02-27T02:04:28.659Z,1.82
2023-02-27T02:07:35.745Z,2.03
2023-02-27T02:10:40.022Z,2.23
2023-02-27T02:13:42.944Z,2.34
2023-02-27T02:17:32.159Z,2.12
2023-02-27T02:20:56.251Z,2.17
2023-02-27T02:24:20.618Z,2.13
2023-02-27T02:27:33.219Z,1.91
2023-02-27T02:31:05.700Z,1.86
2023-02-27T02:34:46.172Z,1.78
2023-02-27T02:38:26.341Z,1.72
2023-02-27T02:41:45.740Z,1.85
2023-02-27T02:45:17.618Z,1.78
2023-02-27T02:48:30.693Z,1.89
2023-02-27T02:51:42.252Z,1.90
2023-02-27T02:54:50.982Z,1.84
2023-02-27T02:58:19.984Z,1.97
2023-02-27T03:01:32.814Z,1.93
2023-02-27T03:04:44.536Z,1.47
2023-02-27T03:07:57.077Z,1.42
2023-02-27T03:11:04.743Z,1.81
2023-02-27T03:14:33.622Z,1.50
2023-02-27T03:18:05.447Z,1.65
2023-02-27T03:21:15.041Z,1.87
2023-02-27T03:24:31.379Z,1.60
2023-02-27T03:27:43.534Z,1.56
2023-02-27T03:31:10.160Z,1.61
2023-02-27T03:34:23.454Z,1.83
2023-02-27T03:37:42.595Z,1.90
2023-02-27T03:41:03.838Z,1.59
2023-02-27T03:44:20.243Z,1.60
2023-02-27T03:47:23.399Z,1.57
2023-02-27T03:50:26.306Z,1.52
2023-02-27T03:53:41.709Z,1.69
2023-02-27T03:56:50.454Z,1.60
2023-02-27T03:59:53.645Z,1.31
2023-02-27T04:02:59.780Z,1.42
2023-02-27T04:06:22.935Z,1.39
2023-02-27T04:09:55.938Z,1.19
2023-02-27T04:13:11.281Z,1.46
2023-02-27T04:16:34.201Z,1.57
2023-02-27T04:20:07.273Z,1.44
2023-02-27T04:23:18.340Z,1.32
2023-02-27T04:26:23.833Z,1.49
2023-02-27T04:30:01.674Z,1.31
2023-02-27T04:33:15.212Z,1.49
2023-02-27T04:36:39.610Z,1.46
2023-02-27T04:39:53.561Z,1.31
2023-02-27T04:42:59.449Z,0.96
2023-02-27T04:46:06.052Z,0.87
2023-02-27T04:49:14.834Z,1.47
2023-02-27T04:52:47.098Z,1.36
2023-02-27T04:55:54.753Z,0.86
2023-02-27T04:59:03.820Z,0.99
2023-02-27T05:02:19.903Z,1.07
2023-02-27T05:05:27.370Z,1.01
2023-02-27T05:08:35.955Z,1.00
2023-02-27T05:11:53.805Z,1.34
2023-02-27T05:15:14.347Z,1.13
2023-02-27T05:18:20.287Z,1.47
2023-02-27T05:22:29.567Z,0.93
2023-02-27T05:25:35.361Z,1.22
2023-02-27T05:28:40.983Z,1.23
2023-02-27T05:31:52.088Z,1.53
2023-02-27T05:35:07.956Z,1.30
2023-02-27T05:38:27.555Z,1.53
2023-02-27T05:41:37.412Z,1.85
2023-02-27T05:44:49.847Z,1.84
2023-02-27T05:48:02.518Z,1.73
2023-02-27T05:51:09.316Z,1.51
2023-02-27T05:54:33.939Z,1.44
2023-02-27T05:57:51.594Z,1.35
2023-02-27T06:00:56.533Z,1.62
2023-02-27T06:03:59.556Z,1.39
2023-02-27T06:07:04.921Z,1.77
2023-02-27T06:10:11.542Z,1.77
2023-02-27T06:13:14.537Z,1.83
2023-02-27T06:16:17.581Z,1.52
2023-02-27T06:19:20.391Z,2.39
2023-02-27T06:22:23.726Z,2.38
2023-02-27T06:25:27.415Z,2.14
2023-02-27T06:28:30.409Z,2.12
2023-02-27T06:31:33.038Z,1.91
2023-02-27T06:34:35.886Z,2.00
2023-02-27T06:37:40.543Z,1.97
2023-02-27T06:40:45.896Z,2.19
2023-02-27T06:43:49.307Z,2.41
2023-02-27T06:46:52.808Z,2.52
2023-02-27T06:49:57.098Z,2.09
2023-02-27T06:53:01.015Z,2.32
2023-02-27T06:56:04.114Z,2.20
2023-02-27T06:59:07.689Z,1.81
2023-02-27T07:02:12.728Z,1.51
2023-02-27T07:05:16.088Z,2.19
2023-02-27T07:08:18.929Z,1.96
2023-02-27T07:11:21.765Z,2.03
2023-02-27T07:14:25.774Z,2.80
2023-02-27T07:17:28.635Z,2.43
2023-02-27T07:20:31.489Z,2.92
2023-02-27T07:23:35.302Z,3.57
2023-02-27T07:26:38.238Z,2.74
2023-02-27T07:29:41.186Z,3.10
2023-02-27T07:32:44.205Z,2.49
2023-02-27T07:35:47.278Z,2.62
2023-02-27T07:38:50.297Z,2.75
2023-02-27T07:41:53.573Z,2.25
2023-02-27T07:44:58.184Z,2.94
2023-02-27T07:48:01.437Z,2.78
2023-02-27T07:51:04.177Z,2.72
2023-02-27T07:54:07.143Z,2.71
2023-02-27T07:57:09.934Z,3.11
2023-02-27T08:00:13.832Z,2.66
2023-02-27T08:03:17.441Z,3.43
2023-02-27T08:06:20.072Z,3.27
2023-02-27T08:09:23.864Z,3.46
2023-02-27T08:12:26.522Z,2.90
2023-02-27T08:15:29.553Z,3.11
2023-02-27T08:18:34.281Z,2.87
2023-02-27T08:21:37.968Z,2.93
2023-02-27T08:24:41.010Z,2.55
2023-02-27T08:27:44.043Z,2.46
2023-02-27T08:30:46.835Z,2.50
2023-02-27T08:33:58.054Z,2.58
2023-02-27T08:37:10.428Z,3.23
2023-02-27T08:40:13.412Z,3.02
2023-02-27T08:43:16.958Z,3.16
2023-02-27T08:46:20.420Z,2.93
2023-02-27T08:49:25.267Z,3.23
2023-02-27T08:52:28.312Z,3.76
2023-02-27T08:55:30.918Z,3.20
2023-02-27T08:58:35.975Z,3.80
2023-02-27T09:01:38.710Z,2.83
2023-02-27T09:04:41.794Z,2.81
2023-02-27T09:07:44.437Z,3.31
2023-02-27T09:10:47.893Z,3.39
2023-02-27T09:13:51.626Z,3.66
2023-02-27T09:16:55.878Z,4.32
2023-02-27T09:20:00.125Z,4.14
2023-02-27T09:23:04.270Z,3.69
2023-02-27T09:26:09.172Z,4.65
2023-02-27T09:29:12.206Z,4.47
2023-02-27T09:32:15.136Z,4.44
2023-02-27T09:35:20.537Z,3.81
2023-02-27T09:38:23.403Z,3.92
2023-02-27T09:42:01.953Z,4.07
2023-02-27T09:45:07.693Z,4.95
2023-02-27T09:48:39.339Z,4.53
2023-02-27T09:51:42.271Z,4.41
2023-02-27T09:54:45.350Z,5.14
2023-02-27T09:57:57.052Z,4.90
2023-02-27T10:01:11.569Z,4.58
2023-02-27T10:04:33.708Z,5.42
2023-02-27T10:07:47.608Z,4.73
2023-02-27T10:11:03.707Z,4.53
2023-02-27T10:14:22.389Z,4.45
2023-02-27T10:17:33.765Z,5.11
2023-02-27T10:20:43.266Z,5.25
2023-02-27T10:23:57.770Z,4.79
2023-02-27T10:27:05.800Z,5.02
2023-02-27T10:30:28.519Z,5.10
2023-02-27T10:33:38.373Z,4.75
2023-02-27T10:36:42.815Z,4.89
2023-02-27T10:39:49.909Z,4.99
2023-02-27T10:42:55.104Z,5.06
2023-02-27T10:46:11.056Z,4.59
2023-02-27T10:49:20.606Z,5.48
2023-02-27T10:52:23.445Z,5.41
2023-02-27T10:55:43.121Z,5.59
2023-02-27T10:58:46.172Z,6.09
2023-02-27T11:01:54.839Z,6.64
2023-02-27T11:05:00.196Z,6.42
2023-02-27T11:08:35.690Z,5.69
2023-02-27T11:11:38.525Z,5.82
2023-02-27T11:15:16.573Z,5.72
2023-02-27T11:18:25.873Z,5.82
2023-02-27T11:21:30.940Z,5.45
2023-02-27T11:24:34.096Z,5.31
2023-02-27T11:27:37.110Z,6.61
2023-02-27T11:30:42.412Z,5.85
2023-02-27T11:33:58.962Z,6.32
2023-02-27T11:37:06.021Z,5.55
2023-02-27T11:40:09.098Z,5.36
2023-02-27T11:43:19.425Z,5.47
2023-02-27T11:46:46.992Z,5.69
2023-02-27T11:50:03.105Z,5.35
2023-02-27T11:53:10.174Z,6.28
2023-02-27T11:56:22.377Z,6.75
2023-02-27T11:59:32.885Z,6.07
2023-02-27T12:02:52.662Z,5.82
2023-02-27T12:06:03.519Z,5.53
2023-02-27T12:09:33.339Z,6.01
2023-02-27T12:13:03.001Z,6.08
2023-02-27T12:16:32.410Z,6.27
2023-02-27T12:20:04.385Z,5.81
2023-02-27T12:23:45.623Z,5.67
2023-02-27T12:27:07.596Z,6.13
2023-02-27T12:30:21.572Z,6.16
2023-02-27T12:33:52.653Z,6.75
2023-02-27T12:37:17.903Z,6.06
2023-02-27T12:40:46.229Z,6.21
2023-02-27T12:44:01.044Z,6.70
2023-02-27T12:47:19.446Z,6.53
2023-02-27T12:50:24.953Z,6.01
2023-02-27T12:53:43.110Z,5.82
2023-02-27T12:57:23.464Z,5.66
2023-02-27T13:00:30.245Z,5.64
2023-02-27T13:03:48.927Z,5.37
2023-02-27T13:07:01.170Z,6.07
2023-02-27T13:10:14.416Z,5.70
2023-02-27T13:13:36.010Z,6.20
2023-02-27T13:16:46.581Z,6.00
2023-02-27T13:19:59.900Z,5.86
2023-02-27T13:23:11.754Z,6.16
2023-02-27T13:26:22.955Z,5.47
2023-02-27T13:29:39.690Z,5.94
2023-02-27T13:32:53.040Z,5.45
2023-02-27T13:36:12.800Z,6.09
2023-02-27T13:39:43.888Z,6.24
2023-02-27T13:42:46.896Z,6.15
2023-02-27T13:45:56.980Z,5.93
2023-02-27T13:49:05.480Z,5.89
2023-02-27T13:52:08.428Z,5.69
2023-02-27T13:55:37.812Z,5.75
2023-02-27T13:58:41.810Z,5.52
2023-02-27T14:01:55.868Z,6.10
2023-02-27T14:05:06.309Z,5.80
2023-02-27T14:08:14.932Z,5.69
2023-02-27T14:11:28.774Z,6.05
2023-02-27T14:14:37.889Z,5.99
2023-02-27T14:17:45.019Z,5.46
2023-02-27T14:20:51.472Z,5.62
2023-02-27T14:23:54.919Z,5.93
2023-02-27T14:26:58.234Z,5.64
2023-02-27T14:30:05.268Z,5.87
2023-02-27T14:33:10.973Z,5.51
2023-02-27T14:36:21.250Z,5.39
2023-02-27T14:39:30.735Z,5.38
2023-02-27T14:42:44.750Z,5.75
2023-02-27T14:45:48.927Z,5.71
2023-02-27T14:48:57.633Z,5.79
2023-02-27T14:52:22.396Z,5.66
2023-02-27T14:55:52.641Z,5.42
2023-02-27T14:59:04.395Z,5.53
2023-02-27T15:02:35.691Z,5.47
2023-02-27T15:05:38.863Z,5.72
2023-02-27T15:08:45.290Z,5.53
2023-02-27T15:11:57.509Z,5.74
2023-02-27T15:15:10.586Z,5.60
2023-02-27T15:18:15.225Z,5.41
2023-02-27T15:21:20.730Z,5.62
2023-02-27T15:24:26.336Z,5.86
2023-02-27T15:27:30.256Z,5.30
2023-02-27T15:30:33.582Z,4.89
2023-02-27T15:33:36.918Z,5.12
2023-02-27T15:36:46.260Z,4.82
2023-02-27T15:39:51.675Z,4.94
2023-02-27T15:42:55.239Z,4.98
2023-02-27T15:45:58.611Z,5.25
2023-02-27T15:49:01.501Z,5.40
2023-02-27T15:52:13.298Z,5.23
2023-02-27T15:55:23.895Z,5.32
2023-02-27T15:58:26.819Z,5.18
2023-02-27T16:01:35.207Z,5.19
2023-02-27T16:04:38.664Z,4.98
2023-02-27T16:07:43.163Z,4.90
2023-02-27T16:10:47.515Z,4.69
2023-02-27T16:13:51.217Z,4.66
2023-02-27T16:16:55.846Z,4.42
2023-02-27T16:20:02.082Z,4.32
2023-02-27T16:23:20.185Z,4.33
2023-02-27T16:26:39.338Z,4.10
2023-02-27T16:29:45.298Z,3.99
2023-02-27T16:32:48.191Z,3.93
2023-02-27T16:36:04.981Z,3.91
2023-02-27T16:39:13.290Z,3.76
2023-02-27T16:42:16.633Z,3.66
2023-02-27T16:45:28.375Z,3.49
2023-02-27T16:48:31.280Z,3.38
2023-02-27T16:51:34.954Z,3.17
2023-02-27T16:54:38.068Z,3.14
2023-02-27T16:57:40.729Z,2.92
2023-02-27T17:00:44.281Z,2.87
2023-02-27T17:03:47.702Z,2.92
2023-02-27T17:06:51.437Z,2.78
2023-02-27T17:09:54.240Z,2.47
2023-02-27T17:12:57.276Z,2.34
2023-02-27T17:16:00.025Z,2.30
2023-02-27T17:19:03.707Z,2.47
2023-02-27T17:22:06.657Z,2.59
2023-02-27T17:25:10.561Z,2.73
2023-02-27T17:28:13.745Z,2.73
2023-02-27T17:31:18.763Z,2.25
2023-02-27T17:34:21.528Z,2.02
2023-02-27T17:37:27.169Z,2.17
2023-02-27T17:40:30.544Z,2.04
2023-02-27T17:43:33.751Z,2.14
2023-02-27T17:46:36.505Z,2.33
2023-02-27T17:49:39.883Z,2.38
2023-02-27T17:52:43.132Z,2.44
2023-02-27T17:55:46.220Z,2.31
2023-02-27T17:58:49.992Z,1.93
2023-02-27T18:01:55.509Z,2.08
2023-02-27T18:04:58.945Z,2.19
2023-02-27T18:08:01.693Z,2.09
2023-02-27T18:11:10.918Z,2.30
2023-02-27T18:14:14.016Z,2.43
2023-02-27T18:17:16.974Z,2.37
2023-02-27T18:20:20.355Z,2.51
2023-02-27T18:23:23.634Z,2.44
2023-02-27T18:26:30.995Z,2.36
2023-02-27T18:29:34.558Z,2.41
2023-02-27T18:32:37.778Z,2.47
2023-02-27T18:35:42.759Z,2.33
2023-02-27T18:38:45.920Z,2.29
2023-02-27T18:41:49.245Z,2.56
2023-02-27T18:44:52.120Z,2.62
2023-02-27T18:47:55.850Z,2.49
2023-02-27T18:51:04.989Z,2.36
2023-02-27T18:54:11.610Z,2.27
2023-02-27T18:57:15.854Z,2.34
2023-02-27T19:00:21.704Z,2.29
2023-02-27T19:03:25.712Z,2.04
2023-02-27T19:06:34.507Z,1.75
2023-02-27T19:09:37.702Z,1.83
2023-02-27T19:12:42.545Z,1.72
2023-02-27T19:15:45.791Z,1.69
2023-02-27T19:18:49.402Z,1.60
2023-02-27T19:21:52.312Z,1.70
2023-02-27T19:24:58.000Z,1.68
2023-02-27T19:28:01.086Z,1.85
2023-02-27T19:31:10.071Z,1.98
2023-02-27T19:34:14.777Z,1.95
2023-02-27T19:37:17.897Z,2.20
2023-02-27T19:40:23.936Z,2.21
2023-02-27T19:43:27.516Z,2.06
2023-02-27T19:46:33.428Z,2.00
2023-02-27T19:49:37.532Z,2.05
2023-02-27T19:52:41.043Z,2.08
2023-02-27T19:55:44.496Z,1.94
2023-02-27T19:58:48.205Z,1.79
2023-02-27T20:01:52.218Z,1.99
2023-02-27T20:04:55.447Z,2.01
2023-02-27T20:07:58.215Z,1.81
2023-02-27T20:11:04.516Z,1.95
2023-02-27T20:14:07.952Z,1.87
2023-02-27T20:17:11.562Z,1.91
2023-02-27T20:20:15.451Z,2.15
2023-02-27T20:23:18.817Z,2.05
2023-02-27T20:26:29.527Z,2.28
2023-02-27T20:29:33.245Z,2.52
2023-02-27T20:32:36.223Z,2.26
2023-02-27T20:35:40.383Z,2.37
2023-02-27T20:38:43.920Z,1.86
2023-02-27T20:41:47.276Z,2.01
2023-02-27T20:44:53.291Z,2.06
2023-02-27T20:48:00.831Z,2.22
2023-02-27T20:51:11.768Z,2.23
2023-02-27T20:54:20.408Z,1.94
2023-02-27T20:57:23.772Z,2.06
2023-02-27T21:00:27.126Z,2.16
2023-02-27T21:03:38.299Z,2.44
2023-02-27T21:06:42.205Z,2.12
2023-02-27T21:09:45.684Z,2.14
2023-02-27T21:12:49.043Z,2.16
2023-02-27T21:15:51.936Z,2.08
2023-02-27T21:18:56.783Z,2.01
2023-02-27T21:21:59.725Z,2.44
2023-02-27T21:25:02.906Z,2.19
2023-02-27T21:28:06.526Z,2.23
2023-02-27T21:31:09.758Z,2.27
2023-02-27T21:34:14.953Z,2.21
2023-02-27T21:37:17.965Z,1.90
2023-02-27T21:40:21.708Z,1.83
2023-02-27T21:43:24.758Z,1.70
2023-02-27T21:46:28.066Z,1.77
2023-02-27T21:49:31.326Z,1.74
2023-02-27T21:52:34.048Z,2.01
2023-02-27T21:55:37.164Z,1.78
2023-02-27T21:58:40.107Z,1.91
2023-02-27T22:01:47.308Z,2.01
2023-02-27T22:04:50.347Z,2.15
2023-02-27T22:07:52.976Z,2.19
2023-02-27T22:10:57.762Z,2.02
2023-02-27T22:14:00.679Z,2.25
2023-02-27T22:17:03.638Z,2.15
2023-02-27T22:20:07.304Z,2.02
2023-02-27T22:23:10.371Z,2.10
2023-02-27T22:26:16.209Z,2.47
2023-02-27T22:29:19.404Z,2.43
2023-02-27T22:32:22.120Z,2.26
2023-02-27T22:35:25.406Z,2.15
2023-02-27T22:38:29.103Z,2.54
2023-02-27T22:41:34.967Z,2.61
2023-02-27T22:44:37.627Z,2.55
2023-02-27T22:47:40.852Z,2.64
2023-02-27T22:50:43.455Z,2.43
2023-02-27T22:53:46.638Z,2.01
2023-02-27T22:56:51.101Z,2.04
2023-02-27T22:59:54.017Z,2.19
2023-02-27T23:02:56.682Z,2.08
2023-02-27T23:06:00.226Z,2.42
2023-02-27T23:09:05.561Z,2.42
2023-02-27T23:12:08.587Z,2.43
2023-02-27T23:15:11.482Z,2.30
2023-02-27T23:18:14.746Z,2.05
2023-02-27T23:21:19.719Z,2.32
2023-02-27T23:24:22.608Z,2.33
2023-02-27T23:27:26.525Z,2.30
2023-02-27T23:30:30.240Z,2.22
2023-02-27T23:33:33.045Z,2.33
2023-02-27T23:36:37.811Z,2.17
2023-02-27T23:39:40.786Z,1.93
2023-02-27T23:42:43.755Z,2.05
2023-02-27T23:45:46.536Z,2.11
2023-02-27T23:48:49.684Z,2.07
2023-02-27T23:51:52.408Z,1.75
2023-02-27T23:54:55.339Z,2.21
2023-02-27T23:57:59.698Z,2.03
